Time;durP1;ratioP1;P1;durP2;ratioP2;P2;SDS_P1;SDS_P2;PMS_P1;PMS_P2;Temp;Humidity;BMP_temperature;BMP_pressure;BME280_temperature;BME280_humidity;BME280_pressure;Samples;Min_cycle;Max_cycle;Signal;HPM_P1;HPM_P2
2024/01/03 00:00:26;;;;;;;13.68;2.15;;;9.10;99.90;;;;;;5073006;28;20040;-61
2024/01/03 00:02:53;;;;;;;11.48;2.00;;;9.40;99.90;;;;;;5074395;28;20098;-61
2024/01/03 00:05:42;;;;;;;13.23;1.73;;;6.50;99.90;;;;;;5074348;28;20075;-61
2024/01/03 00:08:28;;;;;;;12.05;1.92;;;9.30;99.90;;;;;;5073529;28;20135;-59
2024/01/03 00:10:55;;;;;;;11.98;2.10;;;9.60;99.90;;;;;;5074127;28;20048;-61
2024/01/03 00:13:33;;;;;;;16.13;1.77;;;9.80;99.90;;;;;;5072734;28;20485;-61
2024/01/03 00:16:01;;;;;;;10.32;2.05;;;7.80;99.90;;;;;;5073341;28;20036;-61
2024/01/03 00:18:41;;;;;;;17.25;2.75;;;6.60;99.90;;;;;;5073915;28;20040;-61
2024/01/03 00:21:09;;;;;;;11.75;1.98;;;7.40;99.90;;;;;;5074247;28;20049;-60
2024/01/03 00:23:42;;;;;;;12.50;1.75;;;7.30;99.90;;;;;;5073764;28;20481;-61
2024/01/03 00:26:09;;;;;;;9.73;1.80;;;9.40;99.90;;;;;;5073792;28;20041;-61
2024/01/03 00:28:34;;;;;;;8.98;1.45;;;9.10;99.90;;;;;;5074100;28;20032;-61
2024/01/03 00:31:01;;;;;;;17.60;2.25;;;8.90;99.90;;;;;;5073667;28;20041;-61
2024/01/03 00:33:27;;;;;;;13.35;2.30;;;6.90;99.90;;;;;;5073658;28;20057;-61
2024/01/03 00:35:53;;;;;;;9.82;1.80;;;6.90;99.90;;;;;;5073890;28;20049;-61
2024/01/03 00:38:19;;;;;;;16.20;2.92;;;9.20;99.90;;;;;;5072367;28;20041;-61
2024/01/03 00:40:53;;;;;;;14.48;2.60;;;7.90;99.90;;;;;;5073709;28;20033;-61
2024/01/03 00:43:19;;;;;;;12.88;2.30;;;6.50;99.90;;;;;;5072240;28;20041;-61
2024/01/03 00:45:46;;;;;;;15.18;2.15;;;8.70;99.90;;;;;;5073553;28;20097;-61
2024/01/03 00:48:12;;;;;;;14.50;2.58;;;7.90;99.90;;;;;;5073551;28;20116;-61
2024/01/03 00:50:37;;;;;;;14.45;2.13;;;8.90;99.90;;;;;;5073394;28;20120;-61
2024/01/03 00:53:03;;;;;;;13.32;1.85;;;6.50;99.90;;;;;;5073578;28;20086;-61
2024/01/03 00:55:29;;;;;;;18.17;2.53;;;9.20;99.90;;;;;;5073240;28;20078;-61
2024/01/03 00:57:55;;;;;;;16.98;2.70;;;6.30;99.90;;;;;;5073389;28;20038;-61
2024/01/03 01:00:21;;;;;;;17.88;2.50;;;7.40;99.90;;;;;;5073235;28;20115;-61
2024/01/03 01:02:47;;;;;;;12.45;2.88;;;6.50;99.90;;;;;;5072984;28;20037;-61
2024/01/03 01:05:13;;;;;;;15.30;2.03;;;6.40;99.90;;;;;;5072951;28;20070;-62
2024/01/03 01:07:39;;;;;;;13.63;3.28;;;6.40;99.90;;;;;;5073022;28;20128;-61
2024/01/03 01:10:05;;;;;;;18.85;5.20;;;6.20;99.90;;;;;;5072877;28;20119;-61
2024/01/03 01:12:31;;;;;;;19.33;2.53;;;9.40;99.90;;;;;;5072792;28;20047;-61
2024/01/03 01:14:59;;;;;;;17.33;2.25;;;9.50;99.90;;;;;;5073072;28;20040;-61
2024/01/03 01:17:25;;;;;;;17.15;3.22;;;6.40;99.90;;;;;;5073196;28;20056;-61
2024/01/03 01:19:51;;;;;;;23.50;3.25;;;7.10;99.90;;;;;;5072879;28;20505;-61
2024/01/03 01:22:17;;;;;;;20.30;2.72;;;9.30;99.90;;;;;;5071738;28;20071;-60
2024/01/03 01:24:43;;;;;;;18.52;2.45;;;6.90;99.90;;;;;;5072724;28;20405;-61
2024/01/03 01:27:08;;;;;;;16.65;2.67;;;9.40;99.90;;;;;;5073026;28;20040;-61
2024/01/03 01:29:34;;;;;;;19.65;2.80;;;9.30;99.90;;;;;;5072770;28;20121;-61
2024/01/03 01:32:00;;;;;;;21.42;3.33;;;6.30;99.90;;;;;;5072621;28;20052;-61
2024/01/03 01:34:26;;;;;;;15.90;2.95;;;7.50;99.90;;;;;;5072416;28;20076;-61
2024/01/03 01:36:52;;;;;;;14.70;2.45;;;9.80;99.90;;;;;;5072415;28;20486;-61
2024/01/03 01:39:17;;;;;;;19.40;3.67;;;6.10;99.90;;;;;;5072682;28;20036;-61
2024/01/03 01:41:43;;;;;;;19.08;2.75;;;6.00;99.90;;;;;;5071504;28;20029;-61
2024/01/03 01:44:09;;;;;;;20.40;3.47;;;10.00;99.90;;;;;;5072336;28;20044;-60
2024/01/03 01:46:36;;;;;;;20.80;2.55;;;10.00;99.90;;;;;;5072472;28;20040;-61
2024/01/03 01:49:04;;;;;;;17.05;2.17;;;6.30;99.90;;;;;;5072227;28;20072;-61
2024/01/03 01:51:31;;;;;;;15.32;2.53;;;6.10;99.90;;;;;;5072167;28;20076;-61
2024/01/03 01:53:58;;;;;;;14.07;2.33;;;8.80;99.90;;;;;;5072629;28;20395;-61
2024/01/03 01:56:24;;;;;;;16.30;3.00;;;8.20;99.90;;;;;;5072256;28;20036;-61
2024/01/03 01:58:50;;;;;;;21.58;2.63;;;6.50;99.90;;;;;;5072320;28;20041;-60
2024/01/03 02:01:17;;;;;;;14.82;2.17;;;8.60;99.90;;;;;;5072170;28;20056;-61
2024/01/03 02:03:44;;;;;;;16.70;2.28;;;9.00;99.90;;;;;;5072193;28;20059;-60
2024/01/03 02:06:10;;;;;;;17.83;2.22;;;6.20;99.90;;;;;;5072216;28;20067;-60
2024/01/03 02:08:36;;;;;;;19.05;2.53;;;9.60;99.90;;;;;;5072523;28;20512;-60
2024/01/03 02:11:03;;;;;;;16.27;2.22;;;9.40;99.90;;;;;;5072479;28;20408;-61
2024/01/03 02:13:29;;;;;;;14.85;1.95;;;9.70;99.90;;;;;;5071852;28;20488;-60
2024/01/03 02:15:55;;;;;;;17.38;2.47;;;9.70;99.90;;;;;;5071945;28;20123;-60
2024/01/03 02:18:21;;;;;;;17.52;3.13;;;6.70;99.90;;;;;;5072058;28;20109;-61
2024/01/03 02:20:47;;;;;;;21.60;3.38;;;7.50;99.90;;;;;;5071965;28;20036;-61
2024/01/03 02:23:13;;;;;;;15.23;3.22;;;6.70;99.90;;;;;;5071979;28;20040;-60
2024/01/03 02:25:41;;;;;;;15.13;1.90;;;9.70;99.90;;;;;;5070991;28;20078;-61
2024/01/03 02:28:10;;;;;;;15.35;3.10;;;6.80;99.90;;;;;;5071908;28;20043;-60
2024/01/03 02:30:37;;;;;;;15.82;2.85;;;8.70;99.90;;;;;;5071910;28;20040;-60
2024/01/03 02:33:04;;;;;;;16.45;2.03;;;7.40;99.90;;;;;;5071901;28;20044;-60
2024/01/03 02:35:30;;;;;;;15.13;2.30;;;6.90;99.90;;;;;;5071934;28;20048;-61
2024/01/03 02:37:55;;;;;;;13.75;2.03;;;7.70;99.90;;;;;;5071878;28;20040;-61
2024/01/03 02:40:21;;;;;;;11.88;1.92;;;8.70;99.90;;;;;;5074017;28;20485;-61
2024/01/03 02:42:47;;;;;;;13.00;2.88;;;9.50;99.90;;;;;;5075702;28;20037;-61
2024/01/03 02:45:13;;;;;;;11.98;2.00;;;9.30;99.90;;;;;;5075757;28;20048;-61
2024/01/03 02:47:38;;;;;;;15.77;2.67;;;7.50;99.90;;;;;;5075638;28;20029;-61
2024/01/03 02:50:05;;;;;;;19.65;2.47;;;8.70;99.90;;;;;;5075553;28;20040;-62
2024/01/03 02:52:30;;;;;;;12.40;1.77;;;7.40;99.90;;;;;;5075806;28;20123;-61
2024/01/03 02:54:56;;;;;;;10.00;1.60;;;9.20;99.90;;;;;;5075561;28;20569;-61
2024/01/03 02:57:24;;;;;;;10.90;1.55;;;7.70;99.90;;;;;;5075856;28;20473;-61
2024/01/03 02:59:50;;;;;;;12.25;2.05;;;8.00;99.90;;;;;;5075755;28;20093;-61
2024/01/03 03:02:15;;;;;;;11.02;2.88;;;8.40;99.90;;;;;;5074122;28;20048;-61
2024/01/03 03:04:42;;;;;;;13.95;1.90;;;9.50;99.90;;;;;;5075920;28;20053;-61
2024/01/03 03:07:08;;;;;;;14.43;2.78;;;9.30;99.90;;;;;;5075458;28;20139;-61
2024/01/03 03:09:33;;;;;;;15.00;2.10;;;9.40;99.90;;;;;;5075275;28;20115;-61
2024/01/03 03:11:59;;;;;;;13.20;1.98;;;8.90;99.90;;;;;;5075551;28;20082;-61
2024/01/03 03:14:25;;;;;;;14.00;2.53;;;7.50;99.90;;;;;;5057492;28;20123;-61
2024/01/03 03:16:50;;;;;;;15.07;2.35;;;9.00;99.90;;;;;;5075447;28;20119;-62
2024/01/03 03:19:16;;;;;;;8.20;1.33;;;8.50;99.90;;;;;;5075290;28;20064;-61
2024/01/03 03:21:41;;;;;;;13.05;2.78;;;9.20;99.90;;;;;;5075160;28;20052;-60
2024/01/03 03:24:07;;;;;;;13.82;2.17;;;8.10;99.90;;;;;;5074113;28;20082;-61
2024/01/03 03:26:33;;;;;;;5.85;1.20;;;8.60;99.90;;;;;;5075078;28;20040;-61
2024/01/03 03:28:58;;;;;;;10.30;1.65;;;7.60;99.90;;;;;;5075074;28;20120;-62
2024/01/03 03:31:24;;;;;;;11.50;1.48;;;7.60;99.90;;;;;;5074329;28;20441;-61
2024/01/03 03:33:50;;;;;;;10.07;1.55;;;7.60;99.90;;;;;;5074519;28;20075;-62
2024/01/03 03:36:15;;;;;;;19.13;3.60;;;8.70;99.90;;;;;;5074612;28;20500;-61
2024/01/03 03:38:41;;;;;;;9.57;1.88;;;7.60;99.90;;;;;;5074656;28;20488;-62
2024/01/03 03:41:12;;;;;;;17.30;2.50;;;9.00;99.90;;;;;;5074821;28;20032;-62
2024/01/03 03:43:39;;;;;;;12.40;1.98;;;9.20;99.90;;;;;;5074726;28;20047;-62
2024/01/03 03:46:05;;;;;;;12.48;1.85;;;7.80;99.90;;;;;;5074969;28;20507;-60
2024/01/03 03:48:32;;;;;;;9.95;1.52;;;9.30;99.90;;;;;;5074483;28;20036;-61
2024/01/03 03:50:58;;;;;;;10.73;1.90;;;9.30;99.90;;;;;;5074807;28;20040;-62
2024/01/03 03:53:23;;;;;;;10.98;1.77;;;8.70;99.90;;;;;;5074349;28;20102;-61
2024/01/03 03:55:49;;;;;;;8.05;2.40;;;9.30;99.90;;;;;;5073479;28;20569;-61
2024/01/03 03:58:15;;;;;;;5.60;1.23;;;9.00;99.90;;;;;;5073096;28;20048;-62
2024/01/03 04:00:40;;;;;;;12.68;1.92;;;8.20;99.90;;;;;;5074348;28;20109;-62
2024/01/03 04:03:08;;;;;;;8.68;2.10;;;8.40;99.90;;;;;;5074266;28;20047;-61
2024/01/03 04:05:35;;;;;;;8.35;1.55;;;7.70;99.90;;;;;;5074585;28;20052;-61
2024/01/03 04:08:01;;;;;;;7.95;1.50;;;9.40;99.90;;;;;;5074333;28;20109;-62
2024/01/03 04:10:27;;;;;;;8.75;1.85;;;7.90;99.90;;;;;;5074333;28;20040;-61
2024/01/03 04:12:53;;;;;;;10.15;1.60;;;7.40;99.90;;;;;;5074377;28;20052;-62
2024/01/03 04:15:19;;;;;;;12.05;1.60;;;7.50;99.90;;;;;;5072897;28;20082;-61
2024/01/03 04:17:45;;;;;;;8.65;1.60;;;7.60;99.90;;;;;;5074136;28;20044;-61
2024/01/03 04:20:11;;;;;;;6.93;1.10;;;8.60;99.90;;;;;;5074581;28;20037;-62
2024/01/03 04:22:37;;;;;;;13.30;2.33;;;7.80;99.90;;;;;;5074098;28;20105;-61
2024/01/03 04:25:03;;;;;;;8.45;1.67;;;9.30;99.90;;;;;;5072698;28;20540;-61
2024/01/03 04:27:29;;;;;;;7.55;1.10;;;8.70;99.90;;;;;;5074384;28;20036;-62
2024/01/03 04:29:55;;;;;;;8.43;1.63;;;9.40;99.90;;;;;;5074129;28;20459;-61
2024/01/03 04:32:20;;;;;;;11.75;1.70;;;7.80;99.90;;;;;;5074241;28;20465;-61
2024/01/03 04:34:46;;;;;;;7.47;1.15;;;9.40;99.90;;;;;;5073829;28;20499;-62
2024/01/03 04:37:12;;;;;;;9.50;1.33;;;7.90;99.90;;;;;;5074012;28;20040;-61
2024/01/03 04:39:37;;;;;;;10.70;1.58;;;8.00;99.90;;;;;;5073572;28;20400;-62
2024/01/03 04:42:03;;;;;;;9.32;1.50;;;8.60;99.90;;;;;;5073652;28;20083;-61
2024/01/03 04:44:29;;;;;;;12.20;2.22;;;9.40;99.90;;;;;;5073418;28;20045;-61
2024/01/03 04:46:55;;;;;;;9.45;1.75;;;7.70;99.90;;;;;;5072192;28;20032;-61
2024/01/03 04:49:20;;;;;;;7.55;1.63;;;7.70;99.90;;;;;;5073694;28;20402;-62
2024/01/03 04:51:46;;;;;;;5.13;1.23;;;8.60;99.90;;;;;;5073594;28;20059;-61
2024/01/03 04:54:12;;;;;;;8.88;1.42;;;7.60;99.90;;;;;;5073574;28;20055;-61
2024/01/03 04:56:37;;;;;;;7.28;1.35;;;8.30;99.90;;;;;;5073429;28;20470;-61
2024/01/03 04:59:03;;;;;;;8.32;1.50;;;7.80;99.90;;;;;;5073227;28;20037;-59
2024/01/03 05:01:29;;;;;;;8.38;1.73;;;7.60;99.90;;;;;;5073028;28;20048;-62
2024/01/03 05:03:55;;;;;;;13.07;2.13;;;8.60;99.90;;;;;;5072814;28;20048;-61
2024/01/03 05:06:21;;;;;;;8.82;2.15;;;7.70;99.90;;;;;;5073199;28;20456;-62
2024/01/03 05:08:46;;;;;;;11.75;2.45;;;9.50;99.90;;;;;;5073240;28;20093;-61
2024/01/03 05:11:12;;;;;;;9.13;1.48;;;8.10;99.90;;;;;;5072987;28;20040;-62
2024/01/03 05:13:38;;;;;;;13.00;2.95;;;9.30;99.90;;;;;;5072892;28;20045;-61
2024/01/03 05:16:04;;;;;;;7.53;1.55;;;7.70;99.90;;;;;;5073084;28;20036;-62
2024/01/03 05:18:29;;;;;;;12.15;2.30;;;9.00;99.90;;;;;;5072952;28;20044;-61
2024/01/03 05:20:55;;;;;;;11.27;1.95;;;8.80;99.90;;;;;;5072430;28;20036;-61
2024/01/03 05:23:21;;;;;;;10.50;1.42;;;8.40;99.90;;;;;;5072554;28;20036;-62
2024/01/03 05:25:47;;;;;;;13.05;1.90;;;8.40;99.90;;;;;;5072336;28;20060;-62
2024/01/03 05:28:13;;;;;;;8.48;1.60;;;8.50;99.90;;;;;;5071675;28;20373;-62
2024/01/03 05:30:40;;;;;;;12.20;2.10;;;9.50;99.90;;;;;;5071707;28;20040;-61
2024/01/03 05:33:06;;;;;;;9.52;1.30;;;8.90;99.90;;;;;;5071727;28;20590;-62
2024/01/03 05:35:32;;;;;;;5.60;1.15;;;7.70;99.90;;;;;;5061802;28;20076;-62
2024/01/03 05:37:57;;;;;;;7.05;2.00;;;7.90;99.90;;;;;;5062551;28;20059;-61
2024/01/03 05:40:23;;;;;;;6.90;1.50;;;9.50;99.90;;;;;;5071916;28;20381;-61
2024/01/03 05:42:49;;;;;;;9.30;2.00;;;8.40;99.90;;;;;;5071650;28;20482;-62
2024/01/03 05:45:15;;;;;;;9.60;1.40;;;9.40;99.90;;;;;;5070212;28;20080;-61
2024/01/03 05:47:40;;;;;;;10.38;1.58;;;7.10;99.90;;;;;;5061695;28;20449;-61
2024/01/03 05:50:08;;;;;;;7.22;1.45;;;7.50;99.90;;;;;;5060164;28;20047;-62
2024/01/03 05:52:35;;;;;;;10.35;1.63;;;6.80;99.90;;;;;;5061454;28;20045;-61
2024/01/03 05:55:02;;;;;;;7.05;1.25;;;7.80;99.90;;;;;;5070505;28;20048;-62
2024/01/03 05:57:28;;;;;;;9.38;1.67;;;8.20;99.90;;;;;;5070576;28;20119;-61
2024/01/03 05:59:54;;;;;;;8.38;1.40;;;5.70;99.90;;;;;;5070900;28;20048;-61
2024/01/03 06:02:19;;;;;;;7.13;1.10;;;5.50;99.90;;;;;;5069719;28;20048;-61
2024/01/03 06:04:46;;;;;;;5.95;1.13;;;10.70;99.90;;;;;;5062049;28;20060;-61
2024/01/03 06:07:12;;;;;;;12.70;1.73;;;9.40;99.90;;;;;;5059731;28;20443;-60
2024/01/03 06:09:38;;;;;;;10.63;1.88;;;10.20;99.90;;;;;;5061058;28;20075;-60
2024/01/03 06:12:04;;;;;;;19.95;2.17;;;6.90;99.90;;;;;;5067598;28;20071;-60
2024/01/03 06:14:29;;;;;;;26.25;4.22;;;10.40;99.90;;;;;;5070635;28;20052;-61
2024/01/03 06:16:55;;;;;;;23.40;3.55;;;7.70;99.90;;;;;;5070501;28;20048;-60
2024/01/03 06:19:21;;;;;;;22.60;3.20;;;10.50;99.90;;;;;;5071415;28;20048;-61
2024/01/03 06:21:47;;;;;;;20.40;2.97;;;10.10;99.90;;;;;;5069773;28;20120;-61
2024/01/03 06:24:12;;;;;;;27.23;4.40;;;6.90;99.90;;;;;;5071266;28;20063;-61
2024/01/03 06:26:38;;;;;;;19.15;2.88;;;5.70;99.90;;;;;;5071403;28;20079;-61
2024/01/03 06:29:04;;;;;;;28.33;4.28;;;10.70;99.90;;;;;;5071070;28;20055;-61
2024/01/03 06:31:29;;;;;;;25.13;3.10;;;5.80;99.90;;;;;;5071598;28;20094;-61
2024/01/03 06:33:55;;;;;;;22.85;3.28;;;7.70;99.90;;;;;;5067353;28;20052;-61
2024/01/03 06:36:21;;;;;;;26.42;3.15;;;6.70;99.90;;;;;;5059522;28;20032;-61
2024/01/03 06:38:47;;;;;;;16.00;3.05;;;6.00;99.90;;;;;;5063660;28;20033;-60
2024/01/03 06:41:13;;;;;;;18.02;3.97;;;6.20;99.90;;;;;;5059945;28;20106;-60
2024/01/03 06:43:38;;;;;;;27.38;3.50;;;10.80;99.90;;;;;;5053432;28;20048;-61
2024/01/03 06:46:05;;;;;;;24.10;3.70;;;5.60;99.90;;;;;;5051903;28;20087;-61
2024/01/03 06:48:31;;;;;;;21.30;3.20;;;10.80;99.90;;;;;;5051001;28;20053;-61
2024/01/03 06:50:57;;;;;;;21.95;3.15;;;10.90;99.90;;;;;;5050858;28;20049;-61
2024/01/03 06:53:22;;;;;;;19.48;3.17;;;9.60;99.90;;;;;;5053336;28;20045;-61
2024/01/03 06:55:48;;;;;;;21.17;3.53;;;10.40;99.90;;;;;;5050736;28;20029;-60
2024/01/03 06:58:13;;;;;;;20.42;3.97;;;9.70;99.90;;;;;;5050581;28;20045;-61
2024/01/03 07:00:39;;;;;;;18.30;2.60;;;7.20;99.90;;;;;;5050480;28;20167;-61
2024/01/03 07:03:05;;;;;;;23.48;3.95;;;6.20;99.90;;;;;;5049417;28;20048;-61
2024/01/03 07:05:31;;;;;;;24.75;3.83;;;8.30;99.90;;;;;;5061651;28;20045;-61
2024/01/03 07:07:58;;;;;;;23.98;4.25;;;7.10;99.90;;;;;;5069260;28;20040;-61
2024/01/03 07:10:31;;;;;;;23.63;3.50;;;6.70;99.90;;;;;;5070770;28;20060;-61
2024/01/03 07:12:58;;;;;;;25.33;4.88;;;7.20;99.90;;;;;;5070905;28;20044;-61
2024/01/03 07:15:26;;;;;;;21.27;3.63;;;9.10;99.90;;;;;;5070976;28;20553;-61
2024/01/03 07:17:55;;;;;;;19.15;3.22;;;7.80;99.90;;;;;;5069466;28;20051;-61
2024/01/03 07:20:22;;;;;;;24.45;5.40;;;6.60;99.90;;;;;;5070685;28;20086;-61
2024/01/03 07:22:48;;;;;;;28.80;4.95;;;10.60;99.90;;;;;;5061342;28;20037;-60
2024/01/03 07:25:14;;;;;;;23.55;3.42;;;10.80;99.90;;;;;;5059913;28;20053;-61
2024/01/03 07:27:40;;;;;;;22.63;4.55;;;7.20;99.90;;;;;;5062869;28;20040;-61
2024/01/03 07:30:06;;;;;;;28.63;4.28;;;6.20;99.90;;;;;;5074028;28;20597;-62
2024/01/03 07:32:31;;;;;;;22.42;3.83;;;10.30;99.90;;;;;;5073874;28;20051;-60
2024/01/03 07:34:57;;;;;;;21.85;3.85;;;6.20;99.90;;;;;;5073498;28;20116;-61
2024/01/03 07:37:24;;;;;;;24.05;3.55;;;6.70;99.90;;;;;;5074141;28;20041;-60
2024/01/03 07:39:50;;;;;;;21.85;3.42;;;9.60;99.90;;;;;;5073184;28;20073;-60
2024/01/03 07:42:15;;;;;;;23.38;4.05;;;10.20;99.90;;;;;;5073212;28;20393;-61
2024/01/03 07:44:42;;;;;;;15.95;3.40;;;7.70;99.90;;;;;;5073572;28;20427;-61
2024/01/03 07:47:09;;;;;;;19.15;2.55;;;6.80;99.90;;;;;;5073534;28;20041;-61
2024/01/03 07:49:36;;;;;;;15.20;2.88;;;8.50;99.90;;;;;;5073701;28;20040;-62
2024/01/03 07:52:02;;;;;;;20.70;2.30;;;7.00;99.90;;;;;;5073806;28;20040;-61
2024/01/03 07:54:28;;;;;;;17.25;3.35;;;8.40;99.90;;;;;;5073523;28;20793;-61
2024/01/03 07:56:53;;;;;;;19.75;2.88;;;6.60;99.90;;;;;;5073571;28;20090;-61
2024/01/03 07:59:19;;;;;;;16.40;2.42;;;6.80;99.90;;;;;;5072372;28;20094;-61
2024/01/03 08:01:45;;;;;;;17.27;3.33;;;8.10;99.90;;;;;;5072265;28;20044;-61
2024/01/03 08:04:11;;;;;;;20.55;2.45;;;9.60;99.90;;;;;;5072311;28;20064;-61
2024/01/03 08:06:36;;;;;;;23.42;2.70;;;6.80;99.90;;;;;;5073999;28;20051;-61
2024/01/03 08:09:03;;;;;;;16.73;4.47;;;10.20;99.90;;;;;;5073532;28;20044;-61
2024/01/03 08:11:28;;;;;;;18.27;2.67;;;9.50;99.90;;;;;;5065585;28;20036;-61
2024/01/03 08:13:54;;;;;;;19.48;3.22;;;10.00;99.90;;;;;;5053455;28;20370;-61
2024/01/03 08:16:20;;;;;;;17.98;3.75;;;9.80;99.90;;;;;;5052834;28;20041;-61
2024/01/03 08:18:46;;;;;;;21.80;3.50;;;6.80;99.90;;;;;;5052546;28;20048;-63
2024/01/03 08:21:12;;;;;;;18.90;3.20;;;10.40;99.90;;;;;;5052737;28;20350;-62
2024/01/03 08:23:38;;;;;;;24.27;3.67;;;7.20;99.90;;;;;;5052820;28;20041;-61
2024/01/03 08:26:10;;;;;;;22.45;3.53;;;7.00;99.90;;;;;;5052697;28;20041;-62
2024/01/03 08:28:43;;;;;;;21.20;3.03;;;10.00;99.90;;;;;;5053039;28;20699;-62
2024/01/03 08:31:14;;;;;;;23.42;2.85;;;9.90;99.90;;;;;;5053025;28;20086;-61
2024/01/03 08:33:40;;;;;;;19.60;4.05;;;10.10;99.90;;;;;;5051578;28;20068;-62
2024/01/03 08:36:12;;;;;;;19.48;2.95;;;7.10;99.90;;;;;;5052696;28;20452;-61
2024/01/03 08:38:38;;;;;;;16.33;3.00;;;8.80;99.90;;;;;;5050849;28;20120;-61
2024/01/03 08:41:15;;;;;;;18.05;3.92;;;9.40;99.90;;;;;;5051847;28;20124;-61
2024/01/03 08:43:41;;;;;;;15.60;2.20;;;7.60;99.90;;;;;;5052734;28;20116;-62
2024/01/03 08:46:08;;;;;;;15.18;1.88;;;7.50;99.90;;;;;;5053013;28;20037;-62
2024/01/03 08:48:34;;;;;;;14.73;2.33;;;7.40;99.90;;;;;;5052338;28;20076;-62
2024/01/03 08:50:59;;;;;;;17.40;1.98;;;7.70;99.90;;;;;;5052886;28;20033;-61
2024/01/03 08:53:25;;;;;;;8.00;1.38;;;8.80;99.90;;;;;;5052459;28;20532;-62
2024/01/03 08:55:51;;;;;;;11.10;2.00;;;8.70;99.90;;;;;;5052563;28;20044;-61
2024/01/03 08:58:16;;;;;;;13.68;1.50;;;9.30;99.90;;;;;;5052598;28;20124;-61
2024/01/03 09:00:44;;;;;;;15.10;2.55;;;9.50;99.90;;;;;;5052390;28;20033;-61
2024/01/03 09:03:10;;;;;;;17.13;2.38;;;8.00;99.90;;;;;;5052320;28;20058;-61
2024/01/03 09:05:35;;;;;;;15.80;2.70;;;7.30;99.90;;;;;;5051130;28;20056;-62
2024/01/03 09:08:01;;;;;;;13.57;2.40;;;8.10;99.90;;;;;;5052277;28;20170;-61
2024/01/03 09:10:27;;;;;;;16.08;2.42;;;7.70;99.90;;;;;;5052519;28;20049;-61
2024/01/03 09:12:53;;;;;;;17.60;3.22;;;8.20;99.90;;;;;;5052115;28;20429;-61
2024/01/03 09:15:18;;;;;;;13.18;2.28;;;10.10;99.90;;;;;;5052496;28;20049;-61
2024/01/03 09:17:44;;;;;;;17.85;2.35;;;9.20;99.90;;;;;;5052717;28;20047;-61
2024/01/03 09:20:11;;;;;;;12.70;1.90;;;9.80;99.90;;;;;;5053164;28;20086;-61
2024/01/03 09:22:37;;;;;;;14.63;2.40;;;7.60;99.90;;;;;;5053020;28;20040;-62
2024/01/03 09:25:03;;;;;;;15.18;2.95;;;8.90;99.90;;;;;;5055550;28;20044;-61
2024/01/03 09:27:28;;;;;;;11.43;2.10;;;9.00;99.90;;;;;;5062678;28;20044;-61
2024/01/03 09:29:54;;;;;;;13.70;3.13;;;7.80;99.90;;;;;;5071399;28;20093;-61
2024/01/03 09:32:20;;;;;;;15.20;2.40;;;7.60;99.90;;;;;;5067616;28;20123;-61
2024/01/03 09:34:46;;;;;;;10.82;1.75;;;8.00;99.90;;;;;;5063446;28;20047;-60
2024/01/03 09:37:13;;;;;;;12.88;2.05;;;7.30;99.90;;;;;;5062939;28;20037;-61
2024/01/03 09:39:40;;;;;;;18.88;3.20;;;8.50;99.90;;;;;;5061086;28;20419;-61
2024/01/03 09:42:06;;;;;;;12.18;2.97;;;6.90;99.90;;;;;;5061102;28;20032;-64
2024/01/03 09:44:33;;;;;;;12.95;2.05;;;10.00;99.90;;;;;;5058691;28;20040;-61
2024/01/03 09:46:59;;;;;;;15.73;2.40;;;9.80;99.90;;;;;;5062068;28;20062;-61
2024/01/03 09:49:25;;;;;;;11.73;1.90;;;9.80;99.90;;;;;;5060338;28;20131;-61
2024/01/03 09:51:52;;;;;;;15.55;2.58;;;10.20;99.90;;;;;;5061557;28;20040;-60
2024/01/03 09:54:19;;;;;;;17.15;2.75;;;8.00;99.90;;;;;;5061653;28;20049;-61
2024/01/03 09:56:47;;;;;;;12.75;2.60;;;7.90;99.90;;;;;;5061472;28;20070;-61
2024/01/03 09:59:17;;;;;;;17.38;2.65;;;7.20;99.90;;;;;;5060728;28;20081;-61
2024/01/03 10:01:58;;;;;;;21.20;2.75;;;8.40;99.90;;;;;;5058706;28;20545;-61
2024/01/03 10:04:27;;;;;;;15.30;2.42;;;9.60;99.90;;;;;;5062106;28;20048;-61
2024/01/03 10:06:54;;;;;;;12.25;2.25;;;8.20;99.90;;;;;;5060664;28;20051;-60
2024/01/03 10:09:21;;;;;;;13.35;2.03;;;7.80;99.90;;;;;;5060987;28;20036;-61
2024/01/03 10:11:51;;;;;;;11.55;1.95;;;8.00;99.90;;;;;;5062335;28;20048;-61
2024/01/03 10:14:18;;;;;;;13.05;1.90;;;7.40;99.90;;;;;;5060441;28;20101;-61
2024/01/03 10:16:44;;;;;;;9.70;1.80;;;8.00;99.90;;;;;;5063211;28;20041;-61
2024/01/03 10:19:14;;;;;;;19.73;2.28;;;9.90;99.90;;;;;;5063292;28;20031;-61
2024/01/03 10:21:53;;;;;;;8.52;1.80;;;8.90;99.90;;;;;;5063212;28;20044;-61
2024/01/03 10:24:24;;;;;;;11.23;1.73;;;10.10;99.90;;;;;;5063638;28;20549;-61
2024/01/03 10:26:50;;;;;;;11.18;1.67;;;9.80;99.90;;;;;;5064228;28;20083;-61
2024/01/03 10:29:18;;;;;;;16.42;2.08;;;7.60;99.90;;;;;;5060987;28;20484;-61
2024/01/03 10:31:46;;;;;;;11.30;2.60;;;7.30;99.90;;;;;;5060064;28;20060;-61
2024/01/03 10:34:19;;;;;;;13.13;1.70;;;10.30;99.90;;;;;;5061221;28;20380;-61
2024/01/03 10:36:46;;;;;;;16.38;2.28;;;8.70;99.90;;;;;;5060214;28;20036;-61
2024/01/03 10:39:17;;;;;;;11.40;2.78;;;6.80;99.90;;;;;;5059472;28;20076;-61
2024/01/03 10:41:47;;;;;;;12.98;2.05;;;6.40;99.90;;;;;;5061817;28;20032;-61
2024/01/03 10:44:18;;;;;;;10.60;1.85;;;10.10;99.90;;;;;;5059599;28;20044;-60
2024/01/03 10:46:45;;;;;;;9.57;1.90;;;9.60;99.90;;;;;;5060465;28;20040;-60
2024/01/03 10:49:11;;;;;;;12.85;1.88;;;9.80;99.90;;;;;;5062246;28;20275;-61
2024/01/03 10:51:42;;;;;;;9.02;1.73;;;9.70;99.90;;;;;;5061636;28;20090;-61
2024/01/03 10:54:11;;;;;;;13.02;1.73;;;9.60;99.90;;;;;;5060340;28;20045;-61
2024/01/03 10:56:37;;;;;;;14.60;2.42;;;10.30;99.90;;;;;;5060750;28;20044;-61
2024/01/03 10:59:05;;;;;;;14.23;2.90;;;7.40;99.90;;;;;;5061452;28;20037;-61
2024/01/03 11:01:44;;;;;;;16.70;3.22;;;10.70;99.90;;;;;;5063742;28;20056;-60
2024/01/03 11:04:31;;;;;;;9.63;1.92;;;7.70;99.90;;;;;;5063846;28;20040;-61
2024/01/03 11:07:22;;;;;;;18.45;2.80;;;10.10;99.90;;;;;;5063357;28;20028;-61
2024/01/03 11:09:47;;;;;;;19.67;3.30;;;10.70;99.90;;;;;;5066501;28;20044;-61
2024/01/03 11:12:13;;;;;;;18.05;3.03;;;9.80;99.90;;;;;;5062865;28;20082;-61
2024/01/03 11:14:40;;;;;;;13.60;2.75;;;10.90;99.90;;;;;;5063520;28;20048;-61
2024/01/03 11:17:09;;;;;;;16.15;1.98;;;10.00;99.90;;;;;;5064214;28;20135;-62
2024/01/03 11:19:35;;;;;;;19.88;2.30;;;8.60;99.90;;;;;;5063969;28;20090;-62
2024/01/03 11:22:03;;;;;;;22.17;2.70;;;8.50;99.90;;;;;;5061689;28;20037;-61
2024/01/03 11:24:28;;;;;;;18.27;2.85;;;10.90;99.90;;;;;;5065633;28;20037;-61
2024/01/03 11:26:54;;;;;;;15.57;2.65;;;10.60;99.90;;;;;;5064131;28;20040;-61
2024/01/03 11:29:35;;;;;;;17.45;2.60;;;10.10;99.90;;;;;;5066529;28;20082;-61
2024/01/03 11:32:07;;;;;;;22.77;3.92;;;8.40;99.90;;;;;;5066196;28;20090;-61
2024/01/03 11:34:49;;;;;;;13.35;2.17;;;8.60;99.90;;;;;;5065966;28;20055;-61
2024/01/03 11:37:18;;;;;;;;;;;10.90;99.90;;;;;;5064869;28;20032;-62
2024/01/03 11:39:46;;;;;;;14.25;2.58;;;10.80;99.90;;;;;;5064422;28;20448;-61
2024/01/03 11:42:29;;;;;;;12.50;1.92;;;9.90;99.90;;;;;;5062833;28;20033;-62
2024/01/03 11:45:09;;;;;;;18.38;2.33;;;8.90;99.90;;;;;;5063070;28;20036;-62
2024/01/03 11:47:37;;;;;;;14.93;2.30;;;9.30;99.90;;;;;;5065197;28;20048;-61
2024/01/03 11:50:04;;;;;;;15.93;2.75;;;9.80;99.90;;;;;;5066680;28;20044;-61
2024/01/03 11:52:33;;;;;;;14.57;2.95;;;8.90;99.90;;;;;;5063701;28;20038;-61
2024/01/03 11:55:06;;;;;;;9.98;2.05;;;10.50;99.90;;;;;;5066719;28;20041;-61
2024/01/03 11:57:35;;;;;;;12.88;1.83;;;8.90;99.90;;;;;;5064696;28;21381;-60
2024/01/03 12:00:02;;;;;;;18.67;2.50;;;10.40;99.90;;;;;;5063040;28;20468;-61
2024/01/03 12:02:27;;;;;;;9.35;1.52;;;9.80;99.90;;;;;;5043887;28;20053;-60
2024/01/03 12:05:01;;;;;;;13.57;2.53;;;10.00;99.90;;;;;;5060856;28;20048;-61
2024/01/03 12:07:29;;;;;;;14.70;2.08;;;10.10;99.90;;;;;;5051804;28;20029;-62
2024/01/03 12:09:56;;;;;;;11.23;2.00;;;8.70;99.90;;;;;;5063641;28;20515;-61
2024/01/03 12:12:22;;;;;;;11.75;2.50;;;8.60;99.90;;;;;;5056881;28;20111;-61
2024/01/03 12:14:55;;;;;;;10.82;1.90;;;8.50;99.90;;;;;;5057524;28;20175;-61
2024/01/03 12:17:31;;;;;;;14.65;2.20;;;8.60;99.90;;;;;;5064145;28;20037;-62
2024/01/03 12:20:14;;;;;;;10.00;1.98;;;10.10;99.90;;;;;;5059085;28;20048;-62
2024/01/03 12:22:40;;;;;;;12.02;2.17;;;8.50;99.90;;;;;;5063633;28;20040;-62
2024/01/03 12:25:06;;;;;;;12.23;2.08;;;9.00;99.90;;;;;;5052755;28;20051;-61
2024/01/03 12:27:33;;;;;;;15.20;2.38;;;8.60;99.90;;;;;;5060879;28;20125;-62
2024/01/03 12:30:17;;;;;;;12.82;2.33;;;9.90;99.90;;;;;;5057430;28;20394;-61
2024/01/03 12:32:44;;;;;;;12.43;1.98;;;8.90;99.90;;;;;;5057611;28;20059;-62
2024/01/03 12:35:12;;;;;;;12.20;1.88;;;8.60;99.90;;;;;;5065987;28;20045;-62
2024/01/03 12:37:47;;;;;;;14.75;2.00;;;8.80;99.90;;;;;;5062177;28;20417;-60
2024/01/03 12:40:16;;;;;;;11.88;1.80;;;9.70;99.90;;;;;;5066707;28;20037;-61
2024/01/03 12:42:45;;;;;;;13.70;2.05;;;9.80;99.90;;;;;;5065872;28;20033;-62
2024/01/03 12:45:11;;;;;;;11.13;1.63;;;8.80;99.90;;;;;;5058375;28;20468;-62
2024/01/03 12:47:37;;;;;;;12.50;2.05;;;9.50;99.90;;;;;;5059661;28;20048;-61